Time;durP1;ratioP1;P1;durP2;ratioP2;P2;SDS_P1;SDS_P2;PMS_P1;PMS_P2;Temp;Humidity;BMP_temperature;BMP_pressure;BME280_temperature;BME280_humidity;BME280_pressure;Samples;Min_cycle;Max_cycle;Signal;HPM_P1;HPM_P2
2022/10/18 00:01:45;;;;;;;13.90;12.50;;;;;;;14.95;100.00;97618.53;5094493;28;20227;-56
2022/10/18 00:04:11;;;;;;;11.53;9.10;;;;;;;15.02;100.00;97615.78;5094696;28;20172;-58
2022/10/18 00:06:37;;;;;;;10.73;9.13;;;;;;;14.93;100.00;97612.69;5094123;28;20286;-55
2022/10/18 00:09:04;;;;;;;13.10;9.90;;;;;;;14.84;100.00;97627.28;5094491;28;20644;-58
2022/10/18 00:11:29;;;;;;;10.60;9.70;;;;;;;14.82;100.00;97620.66;5094730;28;20510;-56
2022/10/18 00:13:56;;;;;;;10.33;9.43;;;;;;;14.78;100.00;97620.31;5094488;28;20176;-59
2022/10/18 00:16:22;;;;;;;10.93;8.43;;;;;;;14.81;100.00;97617.22;5094497;28;20200;-57
2022/10/18 00:18:47;;;;;;;10.43;9.40;;;;;;;14.86;100.00;97622.59;5093647;28;20180;-58
2022/10/18 00:21:18;;;;;;;10.17;9.27;;;;;;;14.88;100.00;97624.97;5091568;28;20224;-59
2022/10/18 00:23:45;;;;;;;11.80;10.90;;;;;;;14.89;100.00;97621.31;5092887;28;20181;-59
2022/10/18 00:26:14;;;;;;;13.43;12.13;;;;;;;14.92;100.00;97626.94;5094276;28;20275;-58
2022/10/18 00:28:40;;;;;;;13.33;12.03;;;;;;;14.92;100.00;97626.13;5093943;28;20176;-59
2022/10/18 00:31:11;;;;;;;11.73;10.60;;;;;;;14.90;100.00;97625.56;5094247;28;20184;-59
2022/10/18 00:33:36;;;;;;;15.63;13.27;;;;;;;14.88;100.00;97622.34;5093485;28;20182;-57
2022/10/18 00:36:02;;;;;;;17.70;16.40;;;;;;;14.80;100.00;97618.25;5075605;28;20228;-58
2022/10/18 00:38:27;;;;;;;17.13;16.07;;;;;;;14.85;100.00;97623.63;5093690;28;20660;-56
2022/10/18 00:40:53;;;;;;;13.23;12.23;;;;;;;14.92;100.00;97618.22;5094092;28;20185;-58
2022/10/18 00:43:18;;;;;;;16.23;14.83;;;;;;;14.96;100.00;97617.50;5094057;28;20180;-59
2022/10/18 00:45:43;;;;;;;17.07;15.80;;;;;;;15.07;100.00;97620.34;5093593;28;20225;-58
2022/10/18 00:48:12;;;;;;;18.63;17.27;;;;;;;15.13;100.00;97620.22;5093459;28;20249;-59
2022/10/18 00:50:39;;;;;;;17.50;16.30;;;;;;;15.02;100.00;97620.25;5093298;28;20184;-57
2022/10/18 00:53:11;;;;;;;14.73;13.47;;;;;;;15.10;100.00;97625.94;5093621;28;20164;-57
2022/10/18 00:55:36;;;;;;;15.23;12.17;;;;;;;15.10;100.00;97625.94;5093195;28;20168;-58
2022/10/18 00:58:03;;;;;;;13.33;12.03;;;;;;;15.11;100.00;97618.84;5093612;28;20168;-58
2022/10/18 01:00:28;;;;;;;12.83;11.83;;;;;;;15.22;100.00;97612.72;5093402;28;20939;-57
2022/10/18 01:02:54;;;;;;;10.53;9.63;;;;;;;15.15;100.00;97626.06;5093150;28;20288;-57
2022/10/18 01:05:19;;;;;;;11.43;8.47;;;;;;;15.21;100.00;97634.91;5093030;28;20180;-57
2022/10/18 01:08:18;;;;;;;10.63;9.63;;;;;;;15.03;100.00;97633.22;5093289;28;20672;-57
2022/10/18 01:11:02;;;;;;;20.93;11.30;;;;;;;15.11;100.00;97627.56;5093184;28;20169;-58
2022/10/18 01:13:27;;;;;;;10.30;9.60;;;;;;;15.09;100.00;97623.56;5093132;28;20204;-57
2022/10/18 01:16:01;;;;;;;10.20;9.20;;;;;;;15.18;100.00;97628.25;5092862;28;20242;-59
2022/10/18 01:18:33;;;;;;;11.70;10.60;;;;;;;15.07;100.00;97623.00;5093010;28;20173;-59
2022/10/18 01:21:10;;;;;;;10.30;9.30;;;;;;;15.07;100.00;97623.78;5090714;28;20784;-58
2022/10/18 01:24:01;;;;;;;11.13;9.23;;;;;;;15.17;100.00;97623.19;5091932;28;20180;-59
2022/10/18 01:27:05;;;;;;;11.17;8.80;;;;;;;15.19;100.00;97616.66;5085879;28;20200;-58
2022/10/18 01:29:49;;;;;;;13.53;12.53;;;;;;;15.24;100.00;97616.75;5093025;28;20173;-60
2022/10/18 01:32:21;;;;;;;16.20;14.87;;;;;;;15.22;100.00;97618.00;5093204;28;20172;-58
2022/10/18 01:34:50;;;;;;;24.97;22.33;;;;;;;15.28;100.00;97615.22;5092503;28;20175;-56
2022/10/18 01:37:18;;;;;;;15.67;14.23;;;;;;;15.27;100.00;97624.19;5074465;28;20254;-58
2022/10/18 01:39:46;;;;;;;9.00;7.93;;;;;;;15.37;100.00;97621.75;5092702;28;20666;-58
2022/10/18 01:42:17;;;;;;;9.83;8.80;;;;;;;15.33;100.00;97619.78;5092715;28;20220;-57
2022/10/18 01:44:45;;;;;;;15.23;14.07;;;;;;;15.33;100.00;97623.22;5092773;28;20165;-55
2022/10/18 01:47:12;;;;;;;12.87;11.57;;;;;;;15.34;100.00;97619.56;5091104;28;20204;-58
2022/10/18 01:49:38;;;;;;;7.93;7.13;;;;;;;15.36;100.00;97622.78;5092582;28;20180;-57
2022/10/18 01:52:04;;;;;;;9.87;7.30;;;;;;;15.28;100.00;97617.06;5092230;28;20175;-59
2022/10/18 01:54:40;;;;;;;8.97;7.83;;;;;;;15.34;100.00;97610.84;5092495;28;20714;-55
2022/10/18 01:57:30;;;;;;;8.50;7.57;;;;;;;15.42;100.00;97615.75;5093011;28;20215;-58
2022/10/18 02:00:17;;;;;;;9.20;8.40;;;;;;;15.30;100.00;97599.94;5078742;28;20172;-56
2022/10/18 02:02:55;;;;;;;8.37;7.67;;;;;;;15.37;100.00;97603.25;5092323;28;20203;-59
2022/10/18 02:05:29;;;;;;;12.00;10.80;;;;;;;15.44;100.00;97605.72;5092426;28;20188;-59
2022/10/18 02:07:57;;;;;;;13.87;12.53;;;;;;;15.36;100.00;97600.84;5092303;28;20179;-59
2022/10/18 02:10:35;;;;;;;13.87;12.57;;;;;;;15.36;100.00;97603.47;5092270;28;20195;-59
2022/10/18 02:13:01;;;;;;;15.97;14.80;;;;;;;15.42;100.00;97607.03;5092413;28;20183;-59
2022/10/18 02:15:34;;;;;;;17.77;16.03;;;;;;;15.35;100.00;97609.81;5092080;28;20177;-59
2022/10/18 02:18:04;;;;;;;24.90;23.07;;;;;;;15.33;100.00;97607.38;5092291;28;20246;-59
2022/10/18 02:20:31;;;;;;;11.43;10.43;;;;;;;15.40;100.00;97621.25;5089695;28;20227;-57
2022/10/18 02:22:59;;;;;;;8.93;8.23;;;;;;;15.49;100.00;97616.38;5091283;28;20283;-59
2022/10/18 02:25:29;;;;;;;7.33;6.73;;;;;;;15.57;100.00;97605.47;5091386;28;20637;-56
2022/10/18 02:27:55;;;;;;;11.20;10.40;;;;;;;15.64;100.00;97614.06;5090526;28;20702;-59
2022/10/18 02:30:27;;;;;;;14.37;13.47;;;;;;;15.57;100.00;97602.84;5092163;28;20609;-59
2022/10/18 02:32:58;;;;;;;21.10;19.73;;;;;;;15.56;100.00;97603.88;5091976;28;20184;-58
2022/10/18 02:35:31;;;;;;;32.57;30.47;;;;;;;15.63;100.00;97609.00;5092266;28;20172;-57
2022/10/18 02:37:57;;;;;;;31.33;29.53;;;;;;;15.62;100.00;97597.63;5092510;28;20195;-54
2022/10/18 02:40:24;;;;;;;29.50;27.03;;;;;;;15.63;100.00;97601.88;5092296;28;20202;-57
2022/10/18 02:42:56;;;;;;;27.17;25.50;;;;;;;15.62;100.00;97599.47;5091524;28;20224;-57
2022/10/18 02:45:22;;;;;;;26.20;24.57;;;;;;;15.57;100.00;97602.84;5092020;28;20172;-58
2022/10/18 02:47:47;;;;;;;24.93;23.23;;;;;;;15.57;100.00;97600.19;5091956;28;20204;-58
2022/10/18 02:50:13;;;;;;;23.07;21.33;;;;;;;15.52;100.00;97594.81;5092434;28;20238;-57
2022/10/18 02:52:38;;;;;;;32.07;29.97;;;;;;;15.48;100.00;97598.16;5073958;28;20625;-58
2022/10/18 02:55:05;;;;;;;33.60;31.20;;;;;;;15.58;100.00;97593.06;5091452;28;20198;-58
2022/10/18 02:57:31;;;;;;;34.83;32.10;;;;;;;15.60;100.00;97591.81;5093316;28;20280;-58
2022/10/18 02:59:57;;;;;;;30.83;28.93;;;;;;;15.56;100.00;97601.22;5096013;28;20303;-58
2022/10/18 03:02:22;;;;;;;33.47;31.33;;;;;;;15.56;100.00;97605.72;5095426;28;20567;-57
2022/10/18 03:04:48;;;;;;;29.20;27.40;;;;;;;15.52;100.00;97599.31;5095677;28;20173;-57
2022/10/18 03:07:13;;;;;;;27.47;25.87;;;;;;;15.57;100.00;97600.19;5095327;28;20312;-57
2022/10/18 03:09:39;;;;;;;27.20;25.43;;;;;;;15.60;100.00;97597.09;5095478;28;20169;-58
2022/10/18 03:12:04;;;;;;;32.20;30.10;;;;;;;15.70;100.00;97599.91;5095269;28;20168;-58
2022/10/18 03:14:29;;;;;;;31.20;29.50;;;;;;;15.72;100.00;97604.94;5095270;28;20180;-54
2022/10/18 03:16:55;;;;;;;28.73;26.97;;;;;;;15.64;100.00;97600.84;5095237;28;20235;-55
2022/10/18 03:19:20;;;;;;;27.90;26.23;;;;;;;15.76;100.00;97601.59;5095105;28;20253;-59
2022/10/18 03:21:46;;;;;;;26.17;24.20;;;;;;;15.65;100.00;97599.00;5092742;28;20224;-55
2022/10/18 03:24:11;;;;;;;28.83;27.13;;;;;;;15.60;100.00;97599.72;5094176;28;20555;-57
2022/10/18 03:26:36;;;;;;;24.97;23.53;;;;;;;15.62;100.00;97597.63;5095610;28;20203;-58
2022/10/18 03:29:03;;;;;;;27.30;25.53;;;;;;;15.61;100.00;97595.22;5094963;28;20168;-59
2022/10/18 03:31:28;;;;;;;23.27;21.93;;;;;;;15.56;100.00;97606.50;5094369;28;20204;-59
2022/10/18 03:33:54;;;;;;;25.80;24.13;;;;;;;15.59;100.00;97603.41;5095342;28;20238;-57
2022/10/18 03:36:19;;;;;;;25.57;24.03;;;;;;;15.56;100.00;97600.41;5095454;28;20257;-59
2022/10/18 03:38:44;;;;;;;30.37;28.33;;;;;;;15.48;100.00;97593.66;5095209;28;20244;-57
2022/10/18 03:41:10;;;;;;;31.20;29.47;;;;;;;15.56;100.00;97593.28;5094946;28;20169;-56
2022/10/18 03:43:35;;;;;;;30.17;28.07;;;;;;;15.57;100.00;97591.47;5095160;28;20229;-58
2022/10/18 03:46:01;;;;;;;33.63;31.60;;;;;;;15.60;100.00;97591.00;5094911;28;20684;-59
2022/10/18 03:48:26;;;;;;;25.47;24.00;;;;;;;15.52;100.00;97592.19;5094866;28;20173;-59
2022/10/18 03:50:52;;;;;;;26.30;24.60;;;;;;;15.42;100.00;97584.03;5094784;28;20644;-59
2022/10/18 03:53:17;;;;;;;18.43;17.03;;;;;;;15.27;100.00;97586.38;5094883;28;20175;-59
2022/10/18 03:55:42;;;;;;;20.33;18.93;;;;;;;15.31;100.00;97588.34;5094292;28;20632;-59
2022/10/18 03:58:08;;;;;;;14.27;13.17;;;;;;;15.26;100.00;97585.63;5076534;28;20177;-59
2022/10/18 04:00:34;;;;;;;7.40;6.73;;;;;;;15.31;100.00;97590.19;5094550;28;20169;-58
2022/10/18 04:02:59;;;;;;;8.07;7.27;;;;;;;15.35;100.00;97593.94;5094299;28;20200;-59
2022/10/18 04:05:29;;;;;;;10.73;9.63;;;;;;;15.28;100.00;97591.44;5094668;28;20214;-59
2022/10/18 04:07:55;;;;;;;12.47;11.47;;;;;;;15.11;100.00;97595.88;5094447;28;20173;-57
2022/10/18 04:10:20;;;;;;;22.90;21.40;;;;;;;15.02;100.00;97599.94;5093851;28;20194;-58
2022/10/18 04:12:46;;;;;;;20.83;19.30;;;;;;;14.95;100.00;97593.97;5094088;28;20196;-55
2022/10/18 04:15:11;;;;;;;11.13;10.20;;;;;;;14.88;100.00;97594.09;5093859;28;20168;-57
2022/10/18 04:17:36;;;;;;;8.70;8.00;;;;;;;14.88;100.00;97594.09;5094108;28;20299;-57
2022/10/18 04:20:02;;;;;;;11.50;10.00;;;;;;;14.72;100.00;97596.66;5092123;28;20221;-57
2022/10/18 04:22:27;;;;;;;18.30;17.10;;;;;;;14.78;100.00;97601.03;5092671;28;20205;-58
2022/10/18 04:24:53;;;;;;;12.13;11.27;;;;;;;14.68;100.00;97609.53;5092791;28;20188;-59
2022/10/18 04:27:18;;;;;;;11.33;10.33;;;;;;;14.76;100.00;97603.91;5093090;28;20240;-58
2022/10/18 04:29:44;;;;;;;12.20;11.37;;;;;;;14.69;100.00;97603.22;5093328;28;20281;-56
2022/10/18 04:32:09;;;;;;;11.27;10.37;;;;;;;14.70;100.00;97601.41;5093270;28;20300;-57
2022/10/18 04:34:34;;;;;;;12.17;11.20;;;;;;;14.72;100.00;97605.38;5092729;28;20306;-58
2022/10/18 04:37:00;;;;;;;12.33;11.33;;;;;;;14.80;100.00;97612.16;5092724;28;20205;-57
2022/10/18 04:39:25;;;;;;;13.00;11.90;;;;;;;14.73;100.00;97614.91;5093167;28;20646;-58
2022/10/18 04:41:51;;;;;;;11.07;9.90;;;;;;;14.82;100.00;97616.16;5092884;28;20738;-58
2022/10/18 04:44:16;;;;;;;11.63;10.73;;;;;;;14.82;100.00;97618.78;5092710;28;20173;-57
2022/10/18 04:46:41;;;;;;;11.13;10.17;;;;;;;14.76;100.00;97621.59;5092732;28;20291;-58
2022/10/18 04:49:07;;;;;;;10.67;9.87;;;;;;;14.84;100.00;97629.13;5092759;28;20168;-57
2022/10/18 04:51:32;;;;;;;11.80;10.33;;;;;;;14.65;100.00;97625.03;5092553;28;20268;-55
2022/10/18 04:53:57;;;;;;;13.67;12.30;;;;;;;14.53;100.00;97627.69;5093064;28;20176;-51
2022/10/18 04:56:23;;;;;;;10.57;9.50;;;;;;;14.69;100.00;97624.34;5092331;28;20243;-50
2022/10/18 04:58:48;;;;;;;10.67;9.60;;;;;;;14.71;100.00;97626.75;5092736;28;20176;-50
2022/10/18 05:01:15;;;;;;;10.50;9.53;;;;;;;14.74;100.00;97611.25;5092370;28;20205;-56
2022/10/18 05:03:41;;;;;;;11.10;10.07;;;;;;;14.78;100.00;97617.66;5092865;28;20205;-55
2022/10/18 05:06:07;;;;;;;10.63;9.57;;;;;;;14.85;100.00;97612.25;5092476;28;20243;-54
2022/10/18 05:08:33;;;;;;;18.30;9.20;;;;;;;14.83;100.00;97611.69;5092149;28;20195;-53
2022/10/18 05:10:59;;;;;;;10.13;9.33;;;;;;;14.82;100.00;97613.50;5091976;28;20199;-53
2022/10/18 05:13:25;;;;;;;11.27;10.30;;;;;;;14.80;100.00;97607.69;5091924;28;20260;-54
2022/10/18 05:15:50;;;;;;;11.33;10.40;;;;;;;14.91;100.00;97609.50;5092151;28;20212;-53
2022/10/18 05:18:16;;;;;;;12.23;10.73;;;;;;;15.01;100.00;97616.81;5091709;28;20180;-53
2022/10/18 05:20:42;;;;;;;10.60;9.57;;;;;;;15.07;100.00;97610.59;5077006;28;125615;-55
2022/10/18 05:23:09;;;;;;;11.87;8.53;;;;;;;15.08;100.00;97609.56;5090993;28;20257;-57
2022/10/18 05:25:41;;;;;;;11.97;10.53;;;;;;;15.10;100.00;97612.75;5092936;28;20652;-57
2022/10/18 05:28:07;;;;;;;12.47;11.37;;;;;;;15.08;100.00;97609.56;5092632;28;20267;-57
2022/10/18 05:30:35;;;;;;;11.53;10.37;;;;;;;15.10;100.00;97601.41;5093160;28;20168;-58
2022/10/18 05:33:01;;;;;;;12.73;11.67;;;;;;;15.17;100.00;97605.50;5093174;28;20157;-57
2022/10/18 05:35:26;;;;;;;12.57;11.57;;;;;;;15.12;100.00;97602.75;5092977;28;20172;-59
2022/10/18 05:37:51;;;;;;;13.00;11.80;;;;;;;15.10;100.00;97610.09;5092268;28;20208;-57
2022/10/18 05:40:17;;;;;;;12.07;10.83;;;;;;;15.06;100.00;97608.19;5093174;28;20173;-58
2022/10/18 05:42:42;;;;;;;11.90;10.80;;;;;;;15.10;100.00;97607.47;5093086;28;20200;-55
2022/10/18 05:45:08;;;;;;;11.63;10.83;;;;;;;15.10;100.00;97611.97;5092359;28;20348;-59
2022/10/18 05:47:33;;;;;;;10.23;9.63;;;;;;;15.12;100.00;97615.97;5091890;28;20205;-56
2022/10/18 05:49:58;;;;;;;9.80;9.03;;;;;;;15.15;100.00;97612.88;5091845;28;20207;-59
2022/10/18 05:52:24;;;;;;;10.80;9.63;;;;;;;15.13;100.00;97611.50;5092838;28;20189;-58
2022/10/18 05:54:49;;;;;;;11.93;10.97;;;;;;;15.17;100.00;97618.69;5092761;28;20528;-58
2022/10/18 05:57:15;;;;;;;10.70;10.00;;;;;;;15.22;100.00;97618.81;5092496;28;20200;-58
2022/10/18 05:59:40;;;;;;;12.27;10.77;;;;;;;15.25;100.00;97615.69;5092612;28;20208;-58
2022/10/18 06:02:06;;;;;;;12.57;11.40;;;;;;;15.28;100.00;97611.78;5092401;28;20252;-57
2022/10/18 06:04:31;;;;;;;13.37;12.13;;;;;;;15.31;100.00;97616.59;5092020;28;20625;-56
2022/10/18 06:06:56;;;;;;;12.90;11.77;;;;;;;15.40;100.00;97610.69;5092602;28;20208;-55
2022/10/18 06:09:22;;;;;;;18.90;17.67;;;;;;;15.48;100.00;97612.16;5092509;28;20662;-57
2022/10/18 06:11:47;;;;;;;13.37;12.57;;;;;;;15.51;100.00;97608.22;5091977;28;20180;-56
2022/10/18 06:14:13;;;;;;;16.47;15.47;;;;;;;15.60;100.00;97612.13;5091937;28;20188;-57
2022/10/18 06:16:38;;;;;;;20.63;19.27;;;;;;;15.60;100.00;97610.31;5091878;28;20212;-56
2022/10/18 06:19:03;;;;;;;18.60;17.07;;;;;;;15.72;100.00;97616.31;5091621;28;20691;-58
2022/10/18 06:21:29;;;;;;;11.47;10.47;;;;;;;15.82;100.00;97614.88;5088234;28;20244;-56
2022/10/18 06:23:58;;;;;;;10.53;9.53;;;;;;;15.90;100.00;97617.94;5090391;28;20645;-56
2022/10/18 06:26:25;;;;;;;15.83;14.93;;;;;;;15.99;100.00;97615.69;5091713;28;20283;-57
2022/10/18 06:28:50;;;;;;;17.83;16.43;;;;;;;16.11;100.00;97617.19;5091182;28;20186;-58
2022/10/18 06:31:17;;;;;;;9.47;8.87;;;;;;;16.28;100.00;97619.03;5092384;28;20255;-57
2022/10/18 06:33:44;;;;;;;7.67;7.07;;;;;;;16.58;100.00;97630.06;5095616;28;20184;-56
2022/10/18 06:36:20;;;;;;;30.07;28.13;;;;;;;16.79;99.05;97628.50;5096443;28;20200;-58
2022/10/18 06:38:46;;;;;;;16.83;15.40;;;;;;;17.16;97.26;97634.03;5096191;28;20224;-53
2022/10/18 06:41:12;;;;;;;24.80;23.13;;;;;;;17.32;95.36;97633.16;5078060;28;20172;-57
2022/10/18 06:43:38;;;;;;;32.47;29.25;;;;;;;17.38;94.98;97635.59;5095513;28;20168;-58
2022/10/18 06:46:06;;;;;;;29.60;27.60;;;;;;;17.50;93.78;97635.44;5096217;28;20212;-58
2022/10/18 06:48:32;;;;;;;22.00;20.58;;;;;;;17.65;92.91;97640.16;5095698;28;20172;-54
2022/10/18 06:51:01;;;;;;;41.15;38.83;;;;;;;17.45;93.64;97635.38;5095845;28;20176;-56
2022/10/18 06:53:28;;;;;;;39.33;36.97;;;;;;;17.56;93.58;97641.59;5095809;28;20200;-58
2022/10/18 06:56:20;;;;;;;45.25;42.45;;;;;;;17.56;93.06;97642.41;5095562;28;20204;-57
2022/10/18 06:58:45;;;;;;;35.13;33.03;;;;;;;17.61;92.67;97639.81;5090484;28;20689;-57
2022/10/18 07:01:14;;;;;;;43.63;41.15;;;;;;;17.69;92.68;97635.94;5095382;28;20208;-57
2022/10/18 07:03:40;;;;;;;38.80;36.42;;;;;;;17.83;91.82;97639.78;5096092;28;20180;-60
2022/10/18 07:06:08;;;;;;;38.60;36.42;;;;;;;17.67;92.41;97643.31;5093473;28;20205;-58
2022/10/18 07:08:34;;;;;;;43.47;40.92;;;;;;;17.62;92.41;97648.59;5095029;28;20207;-54
2022/10/18 07:11:00;;;;;;;56.40;52.78;;;;;;;17.73;92.22;97639.69;5095437;28;20895;-51
2022/10/18 07:13:29;;;;;;;14.70;13.75;;;;;;;18.05;100.00;97645.03;5094729;28;20637;-51
2022/10/18 07:16:05;;;;;;;56.03;52.33;;;;;;;18.20;95.63;97637.97;5095219;28;20604;-55
2022/10/18 07:18:36;;;;;;;42.70;40.00;;;;;;;18.29;93.36;97638.28;5082763;28;20208;-58
2022/10/18 07:21:06;;;;;;;17.52;16.45;;;;;;;18.15;90.56;97643.25;5084598;28;20236;-54
2022/10/18 07:23:33;;;;;;;12.98;12.27;;;;;;;18.09;90.92;97636.28;5094659;28;20180;-58
2022/10/18 07:26:00;;;;;;;18.77;17.52;;;;;;;18.08;90.73;97645.31;5086763;28;20244;-57
2022/10/18 07:28:26;;;;;;;25.75;24.27;;;;;;;18.05;91.33;97652.97;5094978;28;20686;-56
2022/10/18 07:30:51;;;;;;;46.40;43.58;;;;;;;18.14;91.27;97654.09;5095251;28;20164;-57
2022/10/18 07:33:17;;;;;;;54.75;51.58;;;;;;;17.91;92.70;97657.09;5095067;28;20172;-58
2022/10/18 07:35:42;;;;;;;91.53;86.32;;;;;;;17.91;93.59;97657.09;5094956;28;20165;-57
2022/10/18 07:38:08;;;;;;;104.65;98.78;;;;;;;17.81;94.16;97657.81;5094865;28;20181;-55
2022/10/18 07:40:34;;;;;;;217.63;205.10;;;;;;;17.86;94.03;97655.19;5095109;28;20177;-58
2022/10/18 07:43:00;;;;;;;102.78;97.03;;;;;;;17.93;94.10;97658.44;5101772;22;20252;-58
2022/10/18 07:45:25;;;;;;;87.47;82.63;;;;;;;17.95;93.23;97656.31;5076659;28;20619;-57
2022/10/18 07:47:57;;;;;;;91.25;86.13;;;;;;;17.97;92.70;97656.09;5094373;28;20195;-56
2022/10/18 07:50:23;;;;;;;91.93;86.63;;;;;;;18.01;93.25;97660.63;5093387;28;20180;-59
2022/10/18 07:52:48;;;;;;;89.95;84.63;;;;;;;18.09;92.35;97652.22;5095053;28;20165;-58
2022/10/18 07:55:14;;;;;;;37.70;35.40;;;;;;;18.01;93.02;97649.22;5094599;28;20176;-60
2022/10/18 07:57:39;;;;;;;35.15;32.95;;;;;;;18.23;92.13;97660.53;5094875;28;20222;-58
2022/10/18 08:00:07;;;;;;;19.55;18.35;;;;;;;18.20;92.14;97655.75;5094909;28;20214;-59
2022/10/18 08:02:33;;;;;;;14.00;12.98;;;;;;;18.23;92.28;97658.69;5095167;28;20196;-55
2022/10/18 08:04:58;;;;;;;16.85;15.70;;;;;;;18.43;91.09;97660.72;5086443;28;20516;-59
2022/10/18 08:07:24;;;;;;;14.15;13.15;;;;;;;18.24;92.17;97648.88;5094431;28;20262;-58
2022/10/18 08:09:49;;;;;;;17.65;16.45;;;;;;;18.33;91.77;97652.69;5094760;28;20183;-58
2022/10/18 08:12:15;;;;;;;19.15;17.73;;;;;;;18.46;90.92;97656.72;5094349;28;20222;-56
2022/10/18 08:14:40;;;;;;;20.52;19.17;;;;;;;18.51;90.35;97657.56;5094107;28;20161;-59
2022/10/18 08:17:06;;;;;;;19.48;17.92;;;;;;;18.69;89.63;97667.81;5093412;28;20219;-57
2022/10/18 08:19:31;;;;;;;18.52;17.25;;;;;;;18.59;89.61;97675.72;5094340;28;20620;-56
2022/10/18 08:21:57;;;;;;;13.95;13.15;;;;;;;18.69;89.30;97667.81;5093464;28;20665;-59
2022/10/18 08:24:22;;;;;;;14.15;13.25;;;;;;;18.54;90.02;97667.72;5093161;28;20184;-56
2022/10/18 08:26:49;;;;;;;14.52;13.45;;;;;;;18.50;90.34;97674.53;5094284;28;20196;-59
2022/10/18 08:29:14;;;;;;;14.15;13.25;;;;;;;18.56;90.15;97670.91;5094017;28;20188;-56
2022/10/18 08:31:40;;;;;;;13.43;12.52;;;;;;;18.63;89.99;97671.47;5093536;28;20172;-55
2022/10/18 08:34:05;;;;;;;19.45;18.33;;;;;;;18.57;90.21;97680.47;5094031;28;20204;-59
2022/10/18 08:36:30;;;;;;;17.00;15.50;;;;;;;18.55;90.71;97679.13;5093407;28;20195;-58
2022/10/18 08:38:56;;;;;;;13.60;12.52;;;;;;;18.66;89.91;97681.63;5092912;28;20192;-57
2022/10/18 08:41:24;;;;;;;17.45;16.17;;;;;;;18.79;89.37;97684.84;5093516;28;20181;-58
2022/10/18 08:44:01;;;;;;;25.35;23.88;;;;;;;18.90;88.86;97679.34;5090652;28;20232;-58
2022/10/18 08:46:27;;;;;;;39.20;36.58;;;;;;;19.06;88.05;97683.66;5094080;28;20234;-59
2022/10/18 08:48:55;;;;;;;75.70;71.55;;;;;;;19.25;87.46;97677.91;5093001;28;20180;-57
2022/10/18 08:51:30;;;;;;;35.08;33.03;;;;;;;19.26;87.04;97675.00;5093511;28;20180;-59
2022/10/18 08:54:06;;;;;;;36.13;34.05;;;;;;;19.54;85.18;97679.13;5092964;28;20188;-59
2022/10/18 08:56:32;;;;;;;44.20;41.55;;;;;;;19.77;84.47;97681.31;5092703;28;20634;-57
2022/10/18 08:59:01;;;;;;;54.85;51.67;;;;;;;19.60;84.36;97679.94;5093356;28;20225;-56
2022/10/18 09:02:03;;;;;;;58.60;54.92;;;;;;;19.68;84.61;97690.03;5093623;28;20333;-53
2022/10/18 09:04:40;;;;;;;46.80;43.92;;;;;;;19.50;85.21;97678.06;5093973;28;20183;-57
2022/10/18 09:07:18;;;;;;;48.85;46.15;;;;;;;19.48;85.41;97680.16;5093197;28;20222;-55
2022/10/18 09:09:54;;;;;;;44.60;41.97;;;;;;;19.51;84.96;97688.41;5093549;28;20180;-54
2022/10/18 09:12:30;;;;;;;58.55;54.80;;;;;;;19.26;86.65;97682.19;5093257;28;20181;-58
2022/10/18 09:15:11;;;;;;;60.13;56.58;;;;;;;19.26;86.72;97687.50;5093064;28;20275;-59
2022/10/18 09:17:55;;;;;;;68.32;64.32;;;;;;;19.16;87.47;97684.81;5074869;28;20290;-60
2022/10/18 09:20:22;;;;;;;88.25;83.25;;;;;;;19.16;86.69;97687.47;5072530;28;20175;-58
2022/10/18 09:23:07;;;;;;;64.10;60.38;;;;;;;19.18;86.78;97680.81;5080389;28;20197;-58
2022/10/18 09:25:43;;;;;;;70.50;66.03;;;;;;;19.46;85.77;97688.41;5075097;28;20194;-58
2022/10/18 09:28:33;;;;;;;80.35;75.85;;;;;;;19.58;85.16;97692.69;5093266;28;20176;-54
2022/10/18 09:31:29;;;;;;;39.50;37.00;;;;;;;19.72;84.36;97689.28;5093023;28;20188;-59
2022/10/18 09:34:00;;;;;;;39.35;36.50;;;;;;;20.04;82.06;97690.94;5092271;28;20185;-56
2022/10/18 09:36:34;;;;;;;155.90;147.55;;;;;;;20.39;80.44;97684.84;5092903;28;20289;-58
2022/10/18 09:39:07;;;;;;;112.38;106.22;;;;;;;20.61;79.58;97688.84;5084572;28;20181;-58
2022/10/18 09:44:12;;;;;;;72.53;68.55;;;;;;;21.09;73.59;97692.72;5090409;28;20237;-59
2022/10/18 09:46:45;;;;;;;21.73;20.23;;;;;;;21.28;73.57;97702.81;5092592;28;20238;-59
2022/10/18 09:49:35;;;;;;;52.65;49.47;;;;;;;21.27;73.44;97701.22;5091609;28;20535;-55
2022/10/18 09:52:07;;;;;;;40.50;38.05;;;;;;;21.22;73.07;97701.25;5084662;28;20710;-59
2022/10/18 09:54:39;;;;;;;48.53;45.88;;;;;;;20.91;74.33;97695.97;5092550;28;20172;-59
2022/10/18 09:57:13;;;;;;;53.55;50.67;;;;;;;20.86;75.19;97698.63;5092677;28;20257;-59
2022/10/18 09:59:47;;;;;;;57.53;54.08;;;;;;;20.64;75.67;97701.59;5092438;28;20168;-55
2022/10/18 10:02:14;;;;;;;27.00;25.25;;;;;;;19.90;81.61;97709.25;5074460;28;20585;-55
2022/10/18 10:04:40;;;;;;;78.80;74.15;;;;;;;19.90;85.08;97709.25;5092111;28;20187;-57
2022/10/18 10:07:12;;;;;;;93.88;88.72;;;;;;;19.72;87.52;97704.44;5091745;28;20192;-56
2022/10/18 10:09:55;;;;;;;52.92;49.83;;;;;;;19.68;87.17;97714.00;5092144;28;20238;-57
2022/10/18 10:12:35;;;;;;;34.85;32.67;;;;;;;19.65;86.93;97720.66;5092808;28;20230;-58
2022/10/18 10:15:22;;;;;;;57.47;54.05;;;;;;;19.29;87.76;97716.22;5084452;28;20609;-58
2022/10/18 10:18:00;;;;;;;29.48;27.63;;;;;;;18.98;90.35;97709.94;5091849;28;20231;-58
2022/10/18 10:20:41;;;;;;;98.22;92.32;;;;;;;19.00;90.06;97711.28;5088499;28;20263;-57
2022/10/18 10:23:12;;;;;;;94.30;88.47;;;;;;;18.86;90.87;97712.81;5084574;28;20284;-58
2022/10/18 10:25:40;;;;;;;38.58;36.17;;;;;;;18.71;91.92;97717.22;5092386;28;20188;-58
2022/10/18 10:28:14;;;;;;;35.10;32.95;;;;;;;18.66;93.47;97713.47;5092272;28;20161;-58
2022/10/18 10:30:40;;;;;;;64.55;60.72;;;;;;;18.88;92.79;97707.25;5091834;28;20195;-58
2022/10/18 10:33:25;;;;;;;26.02;24.40;;;;;;;18.95;93.51;97715.75;5092046;28;20169;-58
2022/10/18 10:35:57;;;;;;;82.72;77.80;;;;;;;18.87;92.58;97708.28;5091654;28;20239;-55
2022/10/18 10:38:28;;;;;;;72.28;68.15;;;;;;;18.76;93.48;97712.75;5092143;28;20263;-58
2022/10/18 10:40:54;;;;;;;93.53;88.07;;;;;;;18.87;92.23;97708.28;5091148;28;20193;-57
2022/10/18 10:43:32;;;;;;;93.85;88.70;;;;;;;18.86;91.66;97712.00;5089365;28;20248;-57
2022/10/18 10:46:05;;;;;;;86.13;81.20;;;;;;;18.98;90.93;97705.44;5092058;28;20679;-59
2022/10/18 10:48:38;;;;;;;93.07;87.88;;;;;;;18.84;92.21;97703.47;5092234;28;20188;-58
2022/10/18 10:51:07;;;;;;;95.53;90.22;;;;;;;19.16;90.35;97698.91;5083890;28;20172;-57
2022/10/18 10:53:38;;;;;;;87.35;82.20;;;;;;;19.34;89.30;97703.72;5092100;28;20161;-59
2022/10/18 10:56:05;;;;;;;56.42;53.05;;;;;;;19.42;88.83;97705.09;5091837;28;20694;-57
2022/10/18 10:58:39;;;;;;;80.38;75.63;;;;;;;18.86;92.09;97709.34;5092255;28;20187;-52
2022/10/18 11:01:26;;;;;;;90.28;85.35;;;;;;;18.77;92.15;97711.69;5092207;28;20286;-58
2022/10/18 11:03:54;;;;;;;46.28;43.45;;;;;;;18.68;93.36;97715.88;5092188;28;20172;-59
2022/10/18 11:06:42;;;;;;;20.48;18.67;;;;;;;18.80;92.70;97713.81;5091980;28;20192;-54
2022/10/18 11:09:25;;;;;;;16.80;15.25;;;;;;;19.03;93.10;97712.63;5074010;28;20659;-53
2022/10/18 11:12:01;;;;;;;17.45;16.20;;;;;;;18.86;93.37;97707.50;5091672;28;20310;-57
2022/10/18 11:14:33;;;;;;;38.08;35.70;;;;;;;19.05;91.50;97714.00;5092007;28;20600;-57
2022/10/18 11:17:23;;;;;;;38.60;36.05;;;;;;;19.20;90.91;97705.28;5083356;28;20196;-57
2022/10/18 11:20:22;;;;;;;86.45;81.47;;;;;;;19.01;91.44;97698.78;5095148;28;20194;-59
2022/10/18 11:23:00;;;;;;;30.73;28.60;;;;;;;18.98;92.31;97701.97;5094707;28;20300;-58
2022/10/18 11:25:57;;;;;;;32.78;30.58;;;;;;;18.98;92.28;97705.44;5093891;28;20255;-57
2022/10/18 11:28:31;;;;;;;14.98;13.88;;;;;;;18.73;93.65;97704.47;5093208;28;20601;-55